Wetterdaten: Mrz 2015
Datum Temp Feuchte Luftdruck Regen Wind Richtung Sonnenschein UV Solar Windben
01.03.2015 4,6 C 90 % 1001,5 hPa 7,8 l/m 5,3 km/h S-SO 1,67 h 0,9 UV-I 144 W/m 8,4 km/h
02.03.2015 2,9 C 81 % 1005,8 hPa 4,6 l/m 16,7 km/h W 1,33 h 0,9 UV-I 161 W/m 41,0 km/h
03.03.2015 2,5 C 85 % 1015,8 hPa 3,4 l/m 5,3 km/h S-SW 1,58 h 0,9 UV-I 147 W/m 12,9 km/h
04.03.2015 2,2 C 90 % 1023,6 hPa 4,4 l/m 7,1 km/h W-SW 1,42 h 0,6 UV-I 100 W/m 24,1 km/h
05.03.2015 3,8 C 86 % 1035,7 hPa 0,2 l/m 0,2 km/h NW 0,67 h 0,8 UV-I 116 W/m 2,8 km/h
06.03.2015 4,3 C 86 % 1034,4 hPa 0,0 l/m 0,0 km/h SW 0,00 h 0,7 UV-I 90 W/m 0,0 km/h
07.03.2015 5,5 C 75 % 1029,1 hPa 0,0 l/m 10,0 km/h S 3,17 h 1,2 UV-I 192 W/m 15,7 km/h
08.03.2015 8,3 C 64 % 1023,2 hPa 0,0 l/m 3,8 km/h S 8,33 h 1,4 UV-I 309 W/m 5,6 km/h
09.03.2015 6,9 C 86 % 1025,6 hPa 0,0 l/m 3,5 km/h SO 2,50 h 1,3 UV-I 189 W/m 5,2 km/h
10.03.2015 4,8 C 92 % 1027,1 hPa 1,4 l/m 1,7 km/h N-NW 0,83 h 0,8 UV-I 94 W/m 6,9 km/h
11.03.2015 2,8 C 85 % 1030,4 hPa 0,2 l/m 2,2 km/h NW 5,58 h 1,5 UV-I 283 W/m 6,0 km/h
12.03.2015 2,7 C 83 % 1030,6 hPa 0,2 l/m 1,1 km/h N-NO 8,83 h 1,5 UV-I 341 W/m 4,8 km/h
13.03.2015 2,8 C 74 % 1026,3 hPa 0,0 l/m 1,6 km/h SO 3,83 h 1,1 UV-I 194 W/m 10,4 km/h
14.03.2015 2,4 C 93 % 1027,6 hPa 0,8 l/m 0,9 km/h N-NO 0,00 h 0,6 UV-I 48 W/m 10,0 km/h
15.03.2015 3,8 C 92 % 1026,9 hPa 2,4 l/m 2,5 km/h NO 0,33 h 0,9 UV-I 91 W/m 11,7 km/h
16.03.2015 6,3 C 80 % 1024,9 hPa 0,0 l/m 2,0 km/h O-SO 7,00 h 1,2 UV-I 265 W/m 8,4 km/h
17.03.2015 9,3 C 73 % 1024,8 hPa 0,0 l/m 1,4 km/h SO 7,08 h 1,4 UV-I 275 W/m 5,2 km/h
18.03.2015 8,3 C 76 % 1024,8 hPa 0,0 l/m 0,2 km/h N 8,75 h 1,5 UV-I 309 W/m 2,0 km/h
19.03.2015 5,2 C 85 % 1026,9 hPa 0,0 l/m 0,1 km/h W-NW 5,58 h 1,5 UV-I 238 W/m 1,6 km/h
20.03.2015 4,1 C 90 % 1022,8 hPa 0,0 l/m 0,8 km/h W-NW 4,08 h 1,2 UV-I 203 W/m 6,4 km/h
21.03.2015 2,3 C 96 % 1017,4 hPa 5,8 l/m 0,4 km/h SW 0,00 h 0,6 UV-I 62 W/m 2,0 km/h
22.03.2015 0,4 C 83 % 1024,6 hPa 0,2 l/m 4,5 km/h NO 5,17 h 1,6 UV-I 293 W/m 12,9 km/h
23.03.2015 4,6 C 82 % 1014,5 hPa 0,0 l/m 0,0 km/h S-SO 9,25 h 1,8 UV-I 309 W/m 0,0 km/h
24.03.2015 4,5 C 85 % 1007,9 hPa 0,0 l/m 0,0 km/h S-SW 1,00 h 1,2 UV-I 177 W/m 0,0 km/h
25.03.2015 8,7 C 74 % 1005,3 hPa 0,0 l/m 4,9 km/h SO 7,83 h 1,8 UV-I 318 W/m 13,7 km/h
26.03.2015 4,2 C 89 % 1007,1 hPa 1,2 l/m 0,7 km/h S-SW 1,25 h 0,9 UV-I 117 W/m 5,6 km/h
27.03.2015 4,8 C 90 % 1017,2 hPa 5,8 l/m 7,4 km/h W-SW 0,08 h 0,9 UV-I 71 W/m 26,1 km/h
28.03.2015 7,0 C 84 % 1014,0 hPa 1,8 l/m 11,8 km/h S 6,33 h 2,1 UV-I 306 W/m 18,1 km/h
29.03.2015 7,9 C 91 % 994,7 hPa 20,4 l/m 7,2 km/h S-SW 0,00 h 0,7 UV-I 59 W/m 27,4 km/h
30.03.2015 3,9 C 81 % 1003,5 hPa 3,4 l/m 7,2 km/h W 1,75 h 1,3 UV-I 152 W/m 17,7 km/h
31.03.2015 6,4 C 81 % 997,7 hPa 26,6 l/m 22,4 km/h W-NW 0,75 h 1,2 UV-I 128 W/m 49,5 km/h
Min-Datum 23.03.15 08.03.15 31.03.15 18 Tage 01.03.15 - - - - 01.03.15
Min-Zeit 05:25 14:10 07:20 - 19:55 - - - - 20:30
Minimum -3,8 C 32 % 986,9 hPa - 0,0 km/h - - - - 0,0 km/h
Max-Datum 08.03.15 21.03.15 05.03.15 31.03.15 31.03.15 - 23.03.15 28.03.15 31.03.15 31.03.15
Max-Zeit 14:40 23:45 23:25 05:35 14:45 - 17:20 12:40 13:00 08:35
Maximum 17,9 C 100 % 1036,4 hPa 26,6 l/m 37,0 km/h
W-NW
- 9,17 h 3,9 UV-I 824 W/m 77,2 km/h
W-NW
Durchschnitt 4,8 C 84 % 1019,1 hPa #90,6 l/m 4,3 km/h S #106:00 h 1,2 UV-I 187 W/m 11,7 km/h

Durchschnitt Minimum Temp.1,2 C
Durchschnitt Maximum Temp.9,5 C